createdAt,value
2022-10-01T00:02:27.039Z,70.72
2022-10-01T00:04:59.762Z,70.60
2022-10-01T00:07:32.474Z,71.10
2022-10-01T00:10:04.949Z,71.63
2022-10-01T00:12:37.566Z,71.80
2022-10-01T00:15:13.395Z,73.37
2022-10-01T00:17:46.035Z,72.29
2022-10-01T00:20:18.577Z,73.03
2022-10-01T00:22:51.654Z,74.06
2022-10-01T00:25:26.918Z,74.07
2022-10-01T00:27:59.650Z,73.40
2022-10-01T00:30:32.098Z,74.98
2022-10-01T00:33:05.192Z,73.73
2022-10-01T00:35:38.082Z,74.36
2022-10-01T00:38:10.655Z,75.71
2022-10-01T00:40:43.535Z,75.73
2022-10-01T00:43:24.152Z,75.36
2022-10-01T00:46:00.980Z,76.08
2022-10-01T00:48:39.617Z,76.02
2022-10-01T00:51:12.515Z,76.34
2022-10-01T00:53:48.486Z,75.24
2022-10-01T00:56:21.091Z,75.32
2022-10-01T00:58:57.052Z,72.52
2022-10-01T01:01:30.461Z,72.07
2022-10-01T01:04:03.086Z,71.34
2022-10-01T01:06:35.498Z,71.24
2022-10-01T01:09:07.887Z,71.50
2022-10-01T01:12:08.005Z,70.92
2022-10-01T01:14:52.818Z,71.42
2022-10-01T01:17:37.117Z,71.21
2022-10-01T01:20:15.399Z,71.57
2022-10-01T01:23:08.164Z,74.55
2022-10-01T01:25:48.841Z,75.10
2022-10-01T01:28:35.940Z,76.09
2022-10-01T01:31:12.971Z,76.50
2022-10-01T01:33:51.287Z,76.70
2022-10-01T01:36:33.803Z,77.11
2022-10-01T01:39:10.328Z,76.60
2022-10-01T01:41:51.424Z,76.97
2022-10-01T01:44:28.959Z,77.08
2022-10-01T01:47:03.794Z,76.60
2022-10-01T01:49:37.556Z,76.71
2022-10-01T01:52:17.544Z,77.25
2022-10-01T01:54:51.314Z,77.10
2022-10-01T01:57:24.738Z,77.42
2022-10-01T01:59:57.180Z,77.23
2022-10-01T02:02:34.672Z,77.11
2022-10-01T02:05:12.220Z,76.93
2022-10-01T02:08:15.050Z,77.91
2022-10-01T02:11:06.032Z,77.42
2022-10-01T02:14:10.926Z,77.32
2022-10-01T02:17:18.508Z,77.82
2022-10-01T02:19:58.660Z,77.62
2022-10-01T02:22:51.275Z,76.77
2022-10-01T02:25:28.498Z,76.24
2022-10-01T02:28:06.675Z,75.53
2022-10-01T02:30:41.029Z,74.51
2022-10-01T02:33:17.536Z,74.44
2022-10-01T02:35:53.647Z,74.89
2022-10-01T02:38:28.005Z,73.66
2022-10-01T02:41:06.595Z,73.44
2022-10-01T02:43:54.139Z,73.37
2022-10-01T02:46:41.619Z,73.00
2022-10-01T02:49:17.725Z,72.96
2022-10-01T02:52:11.768Z,73.48
2022-10-01T02:54:50.120Z,72.31
2022-10-01T02:57:25.922Z,72.43
2022-10-01T03:00:04.700Z,72.63
2022-10-01T03:02:37.148Z,72.26
2022-10-01T03:05:10.377Z,71.88
2022-10-01T03:07:43.003Z,71.74
2022-10-01T03:10:17.700Z,71.81
2022-10-01T03:12:50.551Z,71.86
2022-10-01T03:15:23.116Z,71.56
2022-10-01T03:17:55.889Z,71.63
2022-10-01T03:20:28.400Z,71.81
2022-10-01T03:23:00.737Z,71.65
2022-10-01T03:25:33.138Z,71.57
2022-10-01T03:28:05.770Z,71.82
2022-10-01T03:30:38.670Z,71.26
2022-10-01T03:33:11.076Z,71.66
2022-10-01T03:35:43.413Z,71.61
2022-10-01T03:38:16.453Z,71.55
2022-10-01T03:40:48.756Z,71.82
2022-10-01T03:43:21.053Z,71.44
2022-10-01T03:45:53.475Z,72.00
2022-10-01T03:48:26.447Z,72.61
2022-10-01T03:51:01.191Z,73.12
2022-10-01T03:53:33.883Z,74.17
2022-10-01T03:56:06.782Z,74.21
2022-10-01T03:58:39.159Z,74.54
2022-10-01T04:01:11.812Z,74.63
2022-10-01T04:03:45.368Z,75.35
2022-10-01T04:06:18.582Z,76.01
2022-10-01T04:08:50.916Z,74.89
2022-10-01T04:11:23.293Z,76.38
2022-10-01T04:13:55.743Z,76.00
2022-10-01T04:16:28.135Z,76.52
2022-10-01T04:19:01.027Z,76.29
2022-10-01T04:21:33.652Z,76.17
2022-10-01T04:24:06.954Z,76.28
2022-10-01T04:26:39.475Z,76.83
2022-10-01T04:29:12.562Z,76.57
2022-10-01T04:31:45.162Z,75.66
2022-10-01T04:34:18.174Z,76.16
2022-10-01T04:36:50.815Z,76.49
2022-10-01T04:39:23.248Z,76.49
2022-10-01T04:41:55.846Z,76.29
2022-10-01T04:44:28.195Z,75.38
2022-10-01T04:47:00.581Z,75.77
2022-10-01T04:49:34.574Z,75.65
2022-10-01T04:52:07.454Z,76.40
2022-10-01T04:54:39.982Z,76.40
2022-10-01T04:57:13.792Z,74.80
2022-10-01T04:59:46.450Z,74.63
2022-10-01T05:02:19.694Z,74.37
2022-10-01T05:04:52.117Z,74.22
2022-10-01T05:07:25.092Z,74.31
2022-10-01T05:09:57.530Z,73.57
2022-10-01T05:12:30.920Z,73.76
2022-10-01T05:15:04.731Z,73.62
2022-10-01T05:17:37.567Z,73.14
2022-10-01T05:20:12.960Z,73.14
2022-10-01T05:22:46.723Z,73.25
2022-10-01T05:25:20.410Z,73.41
2022-10-01T05:27:53.003Z,73.65
2022-10-01T05:30:28.375Z,72.39
2022-10-01T05:33:03.268Z,73.16
2022-10-01T05:35:35.651Z,71.87
2022-10-01T05:38:08.272Z,71.00
2022-10-01T05:40:40.709Z,70.32
2022-10-01T05:43:13.671Z,68.82
2022-10-01T05:45:48.692Z,67.81
2022-10-01T05:48:21.132Z,66.66
2022-10-01T05:50:53.542Z,66.89
2022-10-01T05:53:25.846Z,65.85
2022-10-01T05:55:58.127Z,65.10
2022-10-01T05:58:31.046Z,64.38
2022-10-01T06:01:04.289Z,64.26
2022-10-01T06:03:37.678Z,64.71
2022-10-01T06:06:09.936Z,64.84
2022-10-01T06:08:42.457Z,64.72
2022-10-01T06:11:15.203Z,63.37
2022-10-01T06:13:48.318Z,63.78
2022-10-01T06:16:22.368Z,64.67
2022-10-01T06:18:59.009Z,64.48
2022-10-01T06:21:33.271Z,62.95
2022-10-01T06:24:06.011Z,62.33
2022-10-01T06:26:38.892Z,62.03
2022-10-01T06:29:12.151Z,61.88
2022-10-01T06:31:44.960Z,60.98
2022-10-01T06:34:17.251Z,60.50
2022-10-01T06:36:49.640Z,59.73
2022-10-01T06:39:22.387Z,58.88
2022-10-01T06:41:54.727Z,58.83
2022-10-01T06:44:27.056Z,57.82
2022-10-01T06:46:59.464Z,57.29
2022-10-01T06:49:31.791Z,57.09
2022-10-01T06:52:22.826Z,56.72
2022-10-01T06:54:55.126Z,55.55
2022-10-01T06:57:27.722Z,57.15
2022-10-01T07:00:01.095Z,55.32
2022-10-01T07:02:33.911Z,55.72
2022-10-01T07:05:07.333Z,56.27
2022-10-01T07:07:40.632Z,53.99
2022-10-01T07:10:13.953Z,54.56
2022-10-01T07:12:47.669Z,53.77
2022-10-01T07:15:22.728Z,53.23
2022-10-01T07:17:55.412Z,53.28
2022-10-01T07:20:27.761Z,53.57
2022-10-01T07:23:01.489Z,52.71
2022-10-01T07:25:33.847Z,52.72
2022-10-01T07:28:08.057Z,54.13
2022-10-01T07:30:41.984Z,52.22
2022-10-01T07:33:14.993Z,52.03
2022-10-01T07:35:49.275Z,52.27
2022-10-01T07:38:22.149Z,51.15
2022-10-01T07:40:56.104Z,50.89
2022-10-01T07:43:28.551Z,50.60
2022-10-01T07:46:03.469Z,50.86
2022-10-01T07:48:35.937Z,51.54
2022-10-01T07:51:09.188Z,50.52
2022-10-01T07:53:41.588Z,50.59
2022-10-01T07:56:13.932Z,50.19
2022-10-01T07:58:46.272Z,49.30
2022-10-01T08:01:19.507Z,49.36
2022-10-01T08:03:52.870Z,48.82
2022-10-01T08:06:25.805Z,48.76
2022-10-01T08:08:58.509Z,48.57
2022-10-01T08:11:31.574Z,48.38
2022-10-01T08:14:06.160Z,48.56
2022-10-01T08:16:41.217Z,48.02
2022-10-01T08:19:14.455Z,47.48
2022-10-01T08:21:46.987Z,48.28
2022-10-01T08:24:19.858Z,47.96
2022-10-01T08:26:57.526Z,47.68
2022-10-01T08:29:30.075Z,47.33
2022-10-01T08:32:02.591Z,47.38
2022-10-01T08:34:34.940Z,47.40
2022-10-01T08:37:07.352Z,47.94
2022-10-01T08:39:40.452Z,47.18
2022-10-01T08:42:30.457Z,47.26
2022-10-01T08:45:08.513Z,47.11
2022-10-01T08:47:50.895Z,47.30
2022-10-01T08:50:52.043Z,48.04
2022-10-01T08:53:52.891Z,47.52
2022-10-01T08:56:32.847Z,47.63
2022-10-01T08:59:15.124Z,48.40
2022-10-01T09:01:47.494Z,50.08
2022-10-01T09:04:20.049Z,50.77
2022-10-01T09:07:02.520Z,51.69
2022-10-01T09:10:01.580Z,53.96
2022-10-01T09:12:49.229Z,58.07
2022-10-01T09:16:13.601Z,60.88
2022-10-01T09:18:57.720Z,61.83
2022-10-01T09:21:39.557Z,62.33
2022-10-01T09:24:18.163Z,62.04
2022-10-01T09:26:51.054Z,63.27
2022-10-01T09:29:37.406Z,63.47
2022-10-01T09:32:10.021Z,63.31
2022-10-01T09:34:45.869Z,64.47
2022-10-01T09:37:29.945Z,65.17
2022-10-01T09:40:27.694Z,65.29
2022-10-01T09:43:00.071Z,66.01
2022-10-01T09:45:33.128Z,65.85
2022-10-01T09:48:31.532Z,67.52
2022-10-01T09:51:24.627Z,68.73
2022-10-01T09:54:04.852Z,68.87
2022-10-01T09:56:45.331Z,69.72
2022-10-01T09:59:26.397Z,69.20
2022-10-01T10:02:02.984Z,67.98
2022-10-01T10:04:35.428Z,70.28
2022-10-01T10:07:08.170Z,71.00
2022-10-01T10:09:40.707Z,71.15
2022-10-01T10:12:29.817Z,71.33
2022-10-01T10:15:18.034Z,71.67
2022-10-01T10:17:53.406Z,72.23
2022-10-01T10:20:41.330Z,72.36
2022-10-01T10:23:25.387Z,73.04
2022-10-01T10:26:07.306Z,72.65
2022-10-01T10:28:48.284Z,72.66
2022-10-01T10:31:26.164Z,73.04
2022-10-01T10:34:10.165Z,73.34
2022-10-01T10:36:43.743Z,73.62
2022-10-01T10:39:27.261Z,73.72
2022-10-01T10:42:01.853Z,73.69
2022-10-01T10:44:38.779Z,71.30
2022-10-01T10:47:16.071Z,70.92
2022-10-01T10:50:00.213Z,70.86
2022-10-01T10:52:38.859Z,70.20
2022-10-01T10:55:31.826Z,70.29
2022-10-01T10:58:16.825Z,70.00
2022-10-01T11:00:54.506Z,69.09
2022-10-01T11:03:30.790Z,69.04
2022-10-01T11:06:14.442Z,69.88
2022-10-01T11:08:58.656Z,68.77
2022-10-01T11:12:07.620Z,69.66
2022-10-01T11:15:09.557Z,70.65
2022-10-01T11:18:05.964Z,69.98
2022-10-01T11:20:52.040Z,69.60
2022-10-01T11:23:59.587Z,68.72
2022-10-01T11:26:42.686Z,67.69
2022-10-01T11:29:17.723Z,67.18
2022-10-01T11:32:04.754Z,66.17
2022-10-01T11:35:08.009Z,66.85
2022-10-01T11:37:40.950Z,66.28
2022-10-01T11:40:23.115Z,65.85
2022-10-01T11:43:01.172Z,66.56
2022-10-01T11:45:42.599Z,64.86
2022-10-01T11:48:27.128Z,64.31
2022-10-01T11:51:09.229Z,65.00
2022-10-01T11:54:08.340Z,64.96
2022-10-01T11:57:04.927Z,65.49
2022-10-01T12:00:02.201Z,66.93
2022-10-01T12:02:55.909Z,67.70
2022-10-01T12:05:34.145Z,66.46
2022-10-01T12:08:15.664Z,66.32
2022-10-01T12:11:07.411Z,67.13
2022-10-01T12:13:56.776Z,67.53
2022-10-01T12:16:55.668Z,68.12
2022-10-01T12:19:33.316Z,67.66
2022-10-01T12:22:24.577Z,67.24
2022-10-01T12:24:57.882Z,67.25
2022-10-01T12:27:57.686Z,66.99
2022-10-01T12:30:59.982Z,66.72
2022-10-01T12:33:52.776Z,65.81
2022-10-01T12:36:40.460Z,66.22
2022-10-01T12:39:24.958Z,65.51
2022-10-01T12:42:15.940Z,65.14
2022-10-01T12:44:58.815Z,65.01
2022-10-01T12:47:39.898Z,64.88
2022-10-01T12:50:32.927Z,65.24
2022-10-01T12:53:24.060Z,65.70
2022-10-01T12:56:00.874Z,66.24
2022-10-01T12:59:07.833Z,65.76
2022-10-01T13:01:52.493Z,66.47
2022-10-01T13:04:37.371Z,65.90
2022-10-01T13:07:34.505Z,65.95
2022-10-01T13:10:17.527Z,64.09
2022-10-01T13:12:59.126Z,64.02
2022-10-01T13:15:39.406Z,63.86
2022-10-01T13:18:21.580Z,62.33
2022-10-01T13:21:00.102Z,63.19
2022-10-01T13:23:55.160Z,62.25
2022-10-01T13:26:45.859Z,62.07
2022-10-01T13:29:37.820Z,61.10
2022-10-01T13:32:31.860Z,61.27
2022-10-01T13:35:30.416Z,61.00
2022-10-01T13:38:46.567Z,60.51
2022-10-01T13:41:23.462Z,59.89
2022-10-01T13:44:10.894Z,59.57
2022-10-01T13:47:11.752Z,59.13
2022-10-01T13:49:50.444Z,58.90
2022-10-01T13:52:35.193Z,58.94
2022-10-01T13:55:26.021Z,59.87
2022-10-01T13:58:22.986Z,59.59
2022-10-01T14:01:12.528Z,59.32
2022-10-01T14:04:16.724Z,59.88
2022-10-01T14:07:31.114Z,59.83
2022-10-01T14:10:06.103Z,59.46
2022-10-01T14:13:21.685Z,59.36
2022-10-01T14:16:02.049Z,59.73
2022-10-01T14:18:45.290Z,58.95
2022-10-01T14:21:31.376Z,60.00
2022-10-01T14:24:32.630Z,59.02
2022-10-01T14:27:24.439Z,58.48
2022-10-01T14:30:13.861Z,58.10
2022-10-01T14:33:19.922Z,57.74
2022-10-01T14:36:37.594Z,57.40
2022-10-01T14:39:41.694Z,57.08
2022-10-01T14:42:27.071Z,56.07
2022-10-01T14:45:04.969Z,56.38
2022-10-01T14:47:37.805Z,56.31
2022-10-01T14:50:24.266Z,54.97
2022-10-01T14:53:07.172Z,54.52
2022-10-01T14:55:42.803Z,54.29
2022-10-01T14:58:44.578Z,54.93
2022-10-01T15:01:22.949Z,54.23
2022-10-01T15:03:57.549Z,54.28
2022-10-01T15:06:43.406Z,54.50
2022-10-01T15:09:20.747Z,53.04
2022-10-01T15:11:55.282Z,53.87
2022-10-01T15:14:29.240Z,54.55
2022-10-01T15:17:12.131Z,53.24
2022-10-01T15:19:48.851Z,54.18
2022-10-01T15:22:33.887Z,53.42
2022-10-01T15:25:07.160Z,53.65
2022-10-01T15:27:43.489Z,53.31
2022-10-01T15:30:20.289Z,53.20
2022-10-01T15:32:53.566Z,53.92
2022-10-01T15:35:28.618Z,54.15
2022-10-01T15:38:02.412Z,54.91
2022-10-01T15:40:38.042Z,54.90
2022-10-01T15:43:10.846Z,54.03
2022-10-01T15:45:44.323Z,53.91
2022-10-01T15:48:36.981Z,52.81
2022-10-01T15:51:35.970Z,52.82
2022-10-01T15:54:11.554Z,52.82
2022-10-01T15:56:50.238Z,53.05
2022-10-01T15:59:23.320Z,52.87
2022-10-01T16:01:56.038Z,53.29
2022-10-01T16:04:29.060Z,52.91
2022-10-01T16:07:01.606Z,52.68
2022-10-01T16:09:34.472Z,52.66
2022-10-01T16:12:22.624Z,51.49
2022-10-01T16:15:05.766Z,51.20
2022-10-01T16:17:41.350Z,51.73
2022-10-01T16:20:16.846Z,51.62
2022-10-01T16:22:49.985Z,51.83
2022-10-01T16:25:25.221Z,52.14
2022-10-01T16:28:00.516Z,51.48
2022-10-01T16:30:35.444Z,51.81
2022-10-01T16:33:08.560Z,51.26
2022-10-01T16:35:44.498Z,51.57
2022-10-01T16:38:16.866Z,51.01
2022-10-01T16:40:49.586Z,51.17
2022-10-01T16:43:25.963Z,49.92
2022-10-01T16:46:00.417Z,51.10
2022-10-01T16:48:33.941Z,50.67
2022-10-01T16:51:06.424Z,50.44
2022-10-01T16:53:39.655Z,50.40
2022-10-01T16:56:15.747Z,50.15
2022-10-01T16:58:48.019Z,50.10
2022-10-01T17:01:20.386Z,50.64
2022-10-01T17:03:52.913Z,50.17
2022-10-01T17:06:25.279Z,50.39
2022-10-01T17:08:57.809Z,50.44
2022-10-01T17:11:31.516Z,49.93
2022-10-01T17:14:09.748Z,50.08
2022-10-01T17:16:42.180Z,49.75
2022-10-01T17:19:15.294Z,49.70
2022-10-01T17:21:47.929Z,49.62
2022-10-01T17:24:20.271Z,49.54
2022-10-01T17:26:52.680Z,49.68
2022-10-01T17:29:25.069Z,49.53
2022-10-01T17:31:57.485Z,49.30
2022-10-01T17:34:29.901Z,49.78
2022-10-01T17:37:02.984Z,49.38
2022-10-01T17:39:36.245Z,49.91
2022-10-01T17:42:08.525Z,49.77
2022-10-01T17:44:40.738Z,49.71
2022-10-01T17:47:13.341Z,49.34
2022-10-01T17:49:46.014Z,49.32
2022-10-01T17:52:19.264Z,49.25
2022-10-01T17:54:51.644Z,49.11
2022-10-01T17:57:23.973Z,49.42
2022-10-01T17:59:56.450Z,48.98
2022-10-01T18:02:43.932Z,49.31
2022-10-01T18:05:16.570Z,49.28
2022-10-01T18:07:49.128Z,48.82
2022-10-01T18:10:21.707Z,49.06
2022-10-01T18:12:54.030Z,48.63
2022-10-01T18:15:26.434Z,49.00
2022-10-01T18:18:53.575Z,48.81
2022-10-01T18:20:51.046Z,49.04
2022-10-01T18:23:23.658Z,48.63
2022-10-01T18:25:55.999Z,48.74
2022-10-01T18:28:29.082Z,48.64
2022-10-01T18:31:13.588Z,48.31
2022-10-01T18:33:55.678Z,48.52
2022-10-01T18:36:56.919Z,47.86
2022-10-01T18:40:05.954Z,48.35
2022-10-01T18:42:56.502Z,47.73
2022-10-01T18:45:56.072Z,47.51
2022-10-01T18:49:01.663Z,47.74
2022-10-01T18:51:52.455Z,48.80
2022-10-01T18:54:39.041Z,47.95
2022-10-01T18:57:38.880Z,48.07
2022-10-01T19:00:25.260Z,47.81
2022-10-01T19:03:33.114Z,47.85
2022-10-01T19:06:46.476Z,47.44
2022-10-01T19:09:30.678Z,47.30
2022-10-01T19:12:38.383Z,47.92
2022-10-01T19:15:27.418Z,47.78
2022-10-01T19:18:43.037Z,46.98
2022-10-01T19:21:38.056Z,47.85
2022-10-01T19:24:20.739Z,47.60
2022-10-01T19:27:21.876Z,47.12
2022-10-01T19:30:13.593Z,46.70
2022-10-01T19:32:48.403Z,47.71
2022-10-01T19:35:24.733Z,47.45
2022-10-01T19:38:19.612Z,47.48
2022-10-01T19:40:58.151Z,47.42
2022-10-01T19:43:58.930Z,47.02
2022-10-01T19:46:45.426Z,46.73
2022-10-01T19:49:30.648Z,47.56
2022-10-01T19:52:15.073Z,46.94
2022-10-01T19:54:56.021Z,46.83
2022-10-01T19:57:31.023Z,47.33
2022-10-01T20:00:14.382Z,46.73
2022-10-01T20:03:02.343Z,47.41
2022-10-01T20:05:49.207Z,46.69
2022-10-01T20:08:39.671Z,47.02
2022-10-01T20:11:28.219Z,47.13
2022-10-01T20:14:06.138Z,47.20
2022-10-01T20:16:49.363Z,47.03
2022-10-01T20:19:40.680Z,47.20
2022-10-01T20:22:21.502Z,47.03
2022-10-01T20:25:25.511Z,46.54
2022-10-01T20:28:01.230Z,47.31
2022-10-01T20:30:46.332Z,47.16
2022-10-01T20:33:44.865Z,46.75
2022-10-01T20:36:27.976Z,46.65
2022-10-01T20:39:23.585Z,47.15
2022-10-01T20:41:57.790Z,47.45
2022-10-01T20:44:35.774Z,46.96
2022-10-01T20:47:18.849Z,47.08
2022-10-01T20:50:35.812Z,46.88
2022-10-01T20:53:35.465Z,47.07
2022-10-01T20:56:23.316Z,46.97
2022-10-01T20:59:03.639Z,47.38
2022-10-01T21:01:41.937Z,46.79
2022-10-01T21:04:22.795Z,46.91
2022-10-01T21:07:02.689Z,46.84
2022-10-01T21:09:45.201Z,46.63
2022-10-01T21:12:28.888Z,46.86
2022-10-01T21:15:05.612Z,46.74
2022-10-01T21:18:21.243Z,46.57
2022-10-01T21:21:20.028Z,46.62
2022-10-01T21:24:28.787Z,46.61
2022-10-01T21:27:51.281Z,46.46
2022-10-01T21:30:24.808Z,47.26
2022-10-01T21:33:24.837Z,46.59
2022-10-01T21:36:11.912Z,46.98
2022-10-01T21:38:47.344Z,47.10
2022-10-01T21:41:41.577Z,46.90
2022-10-01T21:44:30.874Z,46.48
2022-10-01T21:47:31.190Z,46.43
2022-10-01T21:50:17.109Z,46.45
2022-10-01T21:53:34.959Z,45.87
2022-10-01T21:56:22.013Z,45.68
2022-10-01T21:59:19.265Z,45.86
2022-10-01T22:02:06.653Z,45.99
2022-10-01T22:05:00.157Z,45.98
2022-10-01T22:07:45.494Z,46.25
2022-10-01T22:10:27.682Z,46.05
2022-10-01T22:13:05.330Z,45.79
2022-10-01T22:15:46.768Z,46.01
2022-10-01T22:18:43.102Z,45.38
2022-10-01T22:21:27.536Z,45.75
2022-10-01T22:24:18.200Z,46.03
2022-10-01T22:27:01.877Z,45.65
2022-10-01T22:29:42.885Z,45.90
2022-10-01T22:32:18.555Z,46.47
2022-10-01T22:35:05.169Z,46.56
2022-10-01T22:37:50.717Z,46.09
2022-10-01T22:40:34.818Z,46.69
2022-10-01T22:43:12.972Z,46.91
2022-10-01T22:46:06.114Z,46.01
2022-10-01T22:49:01.892Z,46.18
2022-10-01T22:51:57.879Z,46.06
2022-10-01T22:54:33.369Z,46.40
2022-10-01T22:57:23.859Z,46.34
2022-10-01T23:00:17.108Z,47.21
2022-10-01T23:03:26.225Z,48.88
2022-10-01T23:06:34.913Z,49.74
2022-10-01T23:09:26.047Z,50.71
2022-10-01T23:12:13.088Z,51.69
2022-10-01T23:14:57.636Z,52.14
2022-10-01T23:17:49.067Z,52.76
2022-10-01T23:20:59.524Z,53.46
2022-10-01T23:23:34.134Z,53.68
2022-10-01T23:26:34.828Z,54.82
2022-10-01T23:29:28.039Z,54.69
2022-10-01T23:32:00.396Z,55.19
2022-10-01T23:34:50.758Z,55.56
2022-10-01T23:37:51.841Z,56.43
2022-10-01T23:40:29.466Z,56.77
2022-10-01T23:43:07.150Z,56.75
2022-10-01T23:45:48.403Z,57.09
2022-10-01T23:48:26.545Z,57.18
2022-10-01T23:51:11.696Z,58.48
2022-10-01T23:54:07.164Z,59.08
2022-10-01T23:57:04.521Z,58.73
2022-10-01T23:59:49.367Z,59.70
